South Holston Observed Data For Previous 48 Hours

Caption
Day and Hour Reservoir Elevation (behind dam)* Tailwater Elevation (below dam)* Average Hourly Discharge*
3/18/2019 2 AM EDT 1,729.66 1,491.41 3,763
3/18/2019 3 AM EDT 1,729.64 1,491.39 3,771
3/18/2019 4 AM EDT 1,729.60 1,491.39 3,787
3/18/2019 5 AM EDT 1,729.57 1,491.37 3,822
3/18/2019 6 AM EDT 1,729.54 1,491.38 3,746
3/18/2019 7 AM EDT 1,729.51 1,491.39 3,792
3/18/2019 8 AM EDT 1,729.48 1,491.37 3,831
3/18/2019 9 AM EDT 1,729.45 1,491.52 3,806
3/18/2019 10 AM EDT 1,729.38 1,491.24 3,715
3/18/2019 11 AM EDT 1,729.35 1,491.34 3,733
3/18/2019 12 PM EDT 1,729.32 1,491.26 3,741
3/18/2019 1 PM EDT 1,729.32 1,490.48 3,614
3/18/2019 2 PM EDT 1,729.29 1,489.11 1,520
3/18/2019 3 PM EDT 1,729.30 1,489.30 1,525
3/18/2019 4 PM EDT 1,729.27 1,491.36 3,705
3/18/2019 5 PM EDT 1,729.23 1,491.24 3,721
3/18/2019 6 PM EDT 1,729.20 1,491.23 3,725
3/18/2019 7 PM EDT 1,729.24 1,491.30 3,733
3/18/2019 8 PM EDT 1,729.18 1,491.34 3,726
3/18/2019 9 PM EDT 1,729.18 1,491.32 3,733
3/18/2019 10 PM EDT 1,729.13 1,491.30 3,731
3/18/2019 11 PM EDT 1,729.09 1,491.36 3,730
3/19/2019 12 AM EDT 1,729.10 1,491.29 3,735
3/19/2019 1 AM EDT 1,729.06 1,491.40 3,741
3/19/2019 2 AM EDT 1,729.03 1,491.38 3,744
3/19/2019 3 AM EDT 1,729.03 1,491.40 3,744
3/19/2019 4 AM EDT 1,729.00 1,491.37 3,745
3/19/2019 5 AM EDT 1,728.98 1,491.26 3,740
3/19/2019 6 AM EDT 1,728.92 1,491.40 3,741
3/19/2019 7 AM EDT 1,728.93 1,491.32 3,737
3/19/2019 8 AM EDT 1,728.89 1,490.71 3,669
3/19/2019 9 AM EDT 1,728.86 1,490.67 3,469
3/19/2019 10 AM EDT 1,728.84 1,490.67 3,479
3/19/2019 11 AM EDT 1,728.77 1,490.66 3,469
3/19/2019 12 PM EDT 1,728.76 1,490.72 3,492
3/19/2019 1 PM EDT 1,728.73 1,490.71 3,495
3/19/2019 2 PM EDT 1,728.70 1,490.66 3,484
3/19/2019 3 PM EDT 1,728.67 1,490.66 3,468
3/19/2019 4 PM EDT 1,728.65 1,490.66 3,477
3/19/2019 5 PM EDT 1,728.64 1,490.67 3,470
3/19/2019 6 PM EDT 1,728.60 1,491.36 3,608
3/19/2019 7 PM EDT 1,728.60 1,491.40 3,744
3/19/2019 8 PM EDT 1,728.59 1,491.36 3,748
3/19/2019 9 PM EDT 1,728.55 1,491.25 3,744
3/19/2019 10 PM EDT 1,728.51 1,491.30 3,738
3/19/2019 11 PM EDT 1,728.48 1,491.30 3,734
3/20/2019 12 AM EDT 1,728.48 1,491.31 3,738
3/20/2019 1 AM EDT 1,728.44 1,491.35 3,735
3/20/2019 2 AM EDT 1,728.42 1,491.35 3,743
3/20/2019 3 AM EDT 1,728.37 1,491.38 3,740
3/20/2019 4 AM EDT 1,728.39 1,491.41 3,744
3/20/2019 5 AM EDT 1,728.31 1,491.37 3,746
3/20/2019 6 AM EDT 1,728.33 1,491.34 3,736
3/20/2019 7 AM EDT 1,728.30 1,491.35 3,737
3/20/2019 8 AM EDT 1,728.22 1,491.40 3,745
3/20/2019 9 AM EDT 1,728.24 1,489.57 3,318

Elevations are in feet above sea level. Discharges are in cubic feet per second and are reported at the end of the hour.